Tuesday, February 09, 2016
01:24 UTC
  |  Log In   |  Register Free
Airport Search:

Corpus Christi International Airport
(KCRP)

FAA data valid effective Dec 10 2015 - Feb 4 2016 (unless otherwise noted).

 
 
 
 
 
 
 
 
 
 
 
 
 
 
Current Aviation Weather for KCRP

Weather Summary


The most recent METAR observation for CRP was updated at: 12:51 UTC
METAR for KCRP is not available. Closest METAR is for KRBO
KCRP  (most recent observation was updatred at 90:05 UTC)
090051Z 31007KT 10SM SCT200 OVC250 14/M07 A3031 RMK AO2 SLP263 T01441072

KRBO  (10.1 nm SE)   (most recent observation was updated at 90:05 UTC)
090055Z AUTO 30006KT 10SM CLR 15/M05 A3032 RMK AO2 T01511053

KNGP  (12.1 nm NW)   (most recent observation was updated at 90:05 UTC)
090056Z 32006KT 10SM BKN250 16/07 A3031 RMK AO2 SLP262 T01560072

TAF for KCRP is not available.
KCRP
090027Z 0900/0924 35011KT P6SM SCT250 FM090200 VRB06KT P6SM FEW250 FM091800 29010G15KT P6SM FEW250

KNGP  (12.1 nm NW)   (most recent observation was updatred at UTC)
0823/0923 34010KT 9999 BKN250 QNH3027INS FM090300 VRB06KT 9999 BKN250 QNH3032INS BECMG 0914/0915 33006KT 9999 BKN250 QNH3038INS FM092000 33007KT FEW040 BKN250 QNH3025INS AUTOMATED SENSOR METWATCH 0905 TIL 0912 T08/0911Z T20/0920Z FN20042


KNQI  (22.8 nm NE)   (most recent observation was updatred at UTC)
0823/0923 35009KT 9999 FEW160 BKN250 520009 520906 521809 522709 523605 QNH3028INS FM090200 VRB05KT 9999 FEW250 520009 520906 521809 522709 523605 QNH3033INS TEMPO 0902/0906 29006KT SCT250 FM091200 VRB04KT 9999 SKC 500000 QNH3036INS BECMG 0916/0918 31008KT 9999 SKC QNH3026INS TEMPO 0916/0922 VRB05KT FEW250 FM092300 06007KT 9999 SKC QNH3028INS AUTOMATED SENSOR METWATCH 0906 TIL 0912 T03/0911Z T22/0921Z FN20041
GlobalAir.com is loading additional information.
 Current Weather at CRP
65.0 F° (18.3 C°)

Northwest winds at 9.2 mph
Pressure:
30.30 in
Humidity:
19%
Wind:
Northwest at 9.2 mph
Dew Point:
21.0 F° (-6.1 C°)
Visibility:
10.00 mi
CRP NOAA Radar




Find All Airport Services Find A Hotel Find A Rental Car Find A Golf Course Find A Restaurant $100 Hamburger



Airport Weather Forecast for KCRP

Translated METAR for KCRP (0051 UTC)
METAR:
KCRP 090051Z 31007KT 10SM SCT200 OVC250 14/M07 A3031 RMK AO2 SLP263 T01441072
Conditions at:
KCRP (Corpus Christi Intl, TX) observed 0051 UTC 08 February 2016
Temperature:
14°C (57.2°F)
Dewpoint:
-7°C (19.4°F) [RH = 22.7]
Pressure:
30.31 inches Hg (1026.4 mb)
pressure at sea level is 263 in Hg
Winds:
from the NW (310 degrees) at 8.1 mph (7 knots: 3.6 m/s)
Visibility:
10 mile(s)
Ceiling:
25,000 feet AGL
Clouds:
Scattered Clouds at 20,000 feet AGL
Overcast Skies at 25,000 feet AGL
Remarks:
site is automated and HAS a precipitation sensor

Translated TAF for KCRP (Corpus Christi Intl, TX) (0027 UTC)
TAF text:
KCRP 090027Z 0900/0924 35011KT P6SM SCT250
Forecast period:
Tuesday Feb 09 2016 00:00 UTC - Tuesday Feb 09 2016 24:00 UTC
Forecast type:
FROM: standard forecast or significant change
Winds:
from the N (350 degrees) at 12.7 mph (11 knots: 5.7 m/s)
Visibility:
6 or more mile(s) (9.7+ km)
Ceiling:
at least 12,000 feet AGL
Clouds:
Scattered Clouds at 25,000 feet AGL
Weather:
no significant weather observed at this time
TAF text:
FM090200 VRB06KT P6SM FEW250
Forecast period:
Tuesday Feb 09 2016 02:00 UTC - Tuesday Feb 09 2016 18:00 UTC
Forecast type:
FROM: standard forecast or significant change
Winds:
variable wind direction at 6.9 mph (6 knots: 3.1 m/s)
Visibility:
6 or more mile(s) (9.7+ km)
Ceiling:
at least 12,000 feet AGL
Clouds:
Few Clouds at 25,000 feet AGL
Weather:
no significant weather observed at this time
TAF text:
FM091800 29010G15KT P6SM FEW250
Forecast period:
Tuesday Feb 09 2016 18:00 UTC - Tuesday Feb 09 2016 24:00 UTC
Forecast type:
FROM: standard forecast or significant change
Winds:
from the WNW (290 degrees) at 11.5 mph (10 knots: 5.1 m/s)
gusting to 17.3 mph (15 knots: 7.7 m/s)
Visibility:
6 or more mile(s) (9.7+ km)
Ceiling:
at least 12,000 feet AGL
Clouds:
Few Clouds at 25,000 feet AGL
Weather:
no significant weather observed at this time
FBO's on the Field
FBO Company Facility Photos Services Transportation Aviation Fuel Prices: Prices include tax
Catering Weather Repair Courtesy Rental Type 100LL JetA JetA+ MOGAS 8087
 
Atlantic Aviation

This FBO has not yet been rated
FS:Independent
Last Updated: Feb-05
Login to update fuel prices
SS:
Contact Atlantic AviationMore FBO Information
 
Signature Flight Support

This FBO has not yet been rated
FS:Avfuel
Last Updated: Feb-08
Login to update fuel prices
SS:
Contact Signature Flight SupportMore FBO Information
 
Add another FBO Facility Photos Catering Weather Repair Courtesy Rental Type 100LL JetA JetA+ MOGAS 8087
Services Transportation Aviation Fuel Prices: Prices include tax


model-print
model-print
model-print
model-print